Other Surface Observations
Issued by NWS Great Falls, MT

Home | Current Version | Previous Version | Text Only | Print | Product List | Glossary On
Versions: 1 2 3 4 5 6 7 8 9 10 11 12 13 14 15 16 17 18 19 20 21 22 23 24 25 26 27 28 29 30 31 32 33 34 35 36 37 38 39 40 41 42 43 44 45 46 47 48 49 50
000
SXUS55 KTFX 050708
OSOTFX

AREA AWOS OBSERVATIONS
NATIONAL WEATHER SERVICE GREAT FALLS MT
1212 AM MDT Wed Aug 05 2015

METAR K6S8 050555Z AUTO 27000KT 40SM 15/11 A2999 RMK A01 T01500105
METAR K7S0 050555Z AUTO 01000KT 25SM 14/08 A2996 RMK A01 T01440083
METAR K7S0 050155Z AUTO 01000KT 40SM 26/10 A2993 RMK A01 T02550100
METAR K7S0 050055Z AUTO 01000KT 40SM 28/07 A2994 RMK A01 T02830072
METAR K7S1 050555Z AUTO 05009KT 40SM 20/06 A3003 RMK A01 T02000061
METAR K97M 050555Z AUTO 10004KT 40SM 16/14 A2999 RMK A01 T01610138
METAR K97M 050055Z AUTO 23014KT 25SM 18/14 A2998 RMK A01 T01770138
METAR K9S2 050555Z AUTO 33002KT 7SM 18/14 A2995 RMK A01 T01770144
METAR K9S2 050055Z AUTO 25014KT 40SM 28/12 A2987 RMK A01 T02770116
METAR K9S5 050555Z AUTO 20000KT 25SM 17/17 A3002 RMK A01 T01660166
METAR KM75 050555Z AUTO 20000KT 40SM 20/12 A2987 RMK A01 T02000122
METAR KRPX 050555Z AUTO 20000KT 40SM 17/10 A2992 RMK A01 T01660100
METAR KS01 050555Z AUTO 14005KT 15SM 14/13 A2997 RMK A01 T01380127
METAR KS01 050355Z AUTO 09000KT 15SM 16/15 A2998 RMK A01 T01550150
METAR KS01 040155Z AUTO 07003KT 25SM 30/12 A2984 RMK A01 T03000116
METAR KS34 050555Z AUTO 26002KT 25SM 17/05 A2990 RMK A01 T01720050
METAR KS34 050055Z AUTO 19005KT 25SM 31/08 A2986 RMK A01 T03050083
METAR KTHM 050555Z AUTO 21000KT 40SM 17/03 A2993 RMK A01 T01720033
METAR KTHM 050255Z AUTO 21007KT 40SM 27/03 A2990 RMK A01 T02720027



USA.gov is the U.S. government's official web portal to all federal, state and local government web resources and services.